Time;durP1;ratioP1;P1;durP2;ratioP2;P2;SDS_P1;SDS_P2;PMS_P1;PMS_P2;Temp;Humidity;BMP_temperature;BMP_pressure;BME280_temperature;BME280_humidity;BME280_pressure;Samples;Min_cycle;Max_cycle;Signal;HPM_P1;HPM_P2
2022/10/30 00:00:40;;;;;;;16.95;9.65;;;15.50;99.90;;;;;;5091304;28;20036;-62
2022/10/30 00:03:09;;;;;;;15.63;9.32;;;15.50;99.90;;;;;;5090984;28;20043;-62
2022/10/30 00:05:34;;;;;;;19.02;8.95;;;15.50;99.90;;;;;;5091232;28;20068;-62
2022/10/30 00:08:00;;;;;;;18.85;9.32;;;15.50;99.90;;;;;;5090995;28;20040;-62
2022/10/30 00:10:25;;;;;;;15.70;8.93;;;15.50;99.90;;;;;;5091014;28;20044;-62
2022/10/30 00:12:51;;;;;;;17.30;9.90;;;15.40;99.90;;;;;;5091210;28;20040;-62
2022/10/30 00:15:17;;;;;;;17.95;9.00;;;15.40;99.90;;;;;;5090775;28;20039;-63
2022/10/30 00:17:42;;;;;;;16.02;9.48;;;15.30;99.90;;;;;;5091121;28;20138;-62
2022/10/30 00:20:08;;;;;;;14.95;9.30;;;15.30;99.90;;;;;;5090604;28;20033;-62
2022/10/30 00:22:34;;;;;;;19.88;9.77;;;15.30;99.90;;;;;;5090718;28;20055;-62
2022/10/30 00:25:00;;;;;;;20.02;10.13;;;15.20;99.90;;;;;;5090873;28;20043;-62
2022/10/30 00:27:26;;;;;;;16.65;9.88;;;15.20;99.90;;;;;;5090926;28;20043;-62
2022/10/30 00:29:52;;;;;;;18.55;10.05;;;15.20;99.90;;;;;;5090759;28;20036;-63
2022/10/30 00:32:17;;;;;;;19.63;9.57;;;15.10;99.90;;;;;;5090731;28;20360;-62
2022/10/30 00:34:43;;;;;;;17.38;9.70;;;15.10;99.90;;;;;;5090650;28;20119;-63
2022/10/30 00:37:09;;;;;;;18.58;9.35;;;15.10;99.90;;;;;;5090559;28;20032;-63
2022/10/30 00:39:34;;;;;;;16.08;9.27;;;15.10;99.90;;;;;;5090613;28;20091;-62
2022/10/30 00:42:00;;;;;;;15.13;9.65;;;15.00;99.90;;;;;;5090458;28;20151;-62
2022/10/30 00:44:40;;;;;;;20.52;10.10;;;15.00;99.90;;;;;;5090196;28;20055;-63
2022/10/30 00:47:34;;;;;;;17.85;9.73;;;15.00;99.90;;;;;;5090580;28;20050;-62
2022/10/30 00:50:03;;;;;;;19.40;9.65;;;14.90;99.90;;;;;;5086258;28;20048;-62
2022/10/30 00:52:32;;;;;;;16.35;8.82;;;14.90;99.90;;;;;;5090488;28;20063;-63
2022/10/30 00:55:05;;;;;;;18.27;10.45;;;14.90;99.90;;;;;;5090392;28;20035;-64
2022/10/30 00:57:31;;;;;;;18.83;9.73;;;14.90;99.90;;;;;;5090663;28;20044;-63
2022/10/30 00:59:57;;;;;;;15.85;9.38;;;14.90;99.90;;;;;;5089821;28;20075;-62
2022/10/30 01:02:23;;;;;;;18.70;9.65;;;14.80;99.90;;;;;;5089799;28;20474;-62
2022/10/30 01:04:51;;;;;;;16.70;9.27;;;14.80;99.90;;;;;;5090261;28;20067;-62
2022/10/30 01:07:17;;;;;;;19.38;9.57;;;14.80;99.90;;;;;;5090100;28;20044;-62
2022/10/30 01:09:44;;;;;;;18.45;9.57;;;14.80;99.90;;;;;;5089892;28;20518;-63
2022/10/30 01:12:09;;;;;;;17.77;9.93;;;14.80;99.90;;;;;;5090094;28;20063;-62
2022/10/30 01:14:39;;;;;;;17.70;8.85;;;14.70;99.90;;;;;;5089910;28;20094;-62
2022/10/30 01:17:31;;;;;;;18.15;9.40;;;14.70;99.90;;;;;;5090122;28;20097;-62
2022/10/30 01:20:25;;;;;;;16.13;9.55;;;14.70;99.90;;;;;;5089960;28;20171;-62
2022/10/30 01:23:08;;;;;;;16.33;9.60;;;14.70;99.90;;;;;;5089875;28;20100;-62
2022/10/30 01:25:40;;;;;;;17.63;9.95;;;14.70;99.90;;;;;;5090098;28;20133;-62
2022/10/30 01:28:16;;;;;;;16.92;9.27;;;14.70;99.90;;;;;;5089991;28;20046;-66
2022/10/30 01:31:39;;;;;;;19.88;9.40;;;14.60;99.90;;;;;;5090094;28;20036;-63
2022/10/30 01:34:27;;;;;;;17.00;9.63;;;14.60;99.90;;;;;;5051446;28;20202;-62
2022/10/30 01:37:00;;;;;;;16.50;10.38;;;14.60;99.90;;;;;;5089876;28;20055;-63
2022/10/30 01:39:31;;;;;;;17.10;9.60;;;14.60;99.90;;;;;;5089711;28;20097;-62
2022/10/30 01:41:56;;;;;;;17.25;9.93;;;14.60;99.90;;;;;;5089925;28;20044;-62
2022/10/30 01:44:31;;;;;;;16.55;9.40;;;14.60;99.90;;;;;;5090036;28;20046;-62
2022/10/30 01:47:10;;;;;;;17.23;9.77;;;14.60;99.90;;;;;;5093216;28;20044;-62
2022/10/30 01:50:16;;;;;;;16.83;9.52;;;14.60;99.90;;;;;;5093805;28;20040;-62
2022/10/30 01:53:26;;;;;;;16.85;9.45;;;14.50;99.90;;;;;;5093275;28;20378;-63
2022/10/30 01:56:29;;;;;;;16.42;9.00;;;14.50;99.90;;;;;;5080232;28;20109;-63
2022/10/30 01:59:22;;;;;;;18.70;9.32;;;14.50;99.90;;;;;;5093295;28;20476;-62
2022/10/30 02:01:48;;;;;;;19.00;9.25;;;14.50;99.90;;;;;;5093424;28;20063;-62
2022/10/30 02:04:14;;;;;;;20.35;9.60;;;14.50;99.90;;;;;;5092236;28;20135;-62
2022/10/30 02:06:40;;;;;;;14.40;9.25;;;14.50;99.90;;;;;;5093528;28;20103;-62
2022/10/30 02:09:06;;;;;;;19.02;9.65;;;14.50;99.90;;;;;;5093536;28;20440;-62
2022/10/30 02:11:33;;;;;;;16.95;9.65;;;14.50;99.90;;;;;;5093116;28;20062;-62
2022/10/30 02:14:05;;;;;;;15.63;9.60;;;14.50;99.90;;;;;;5093290;28;20028;-62
2022/10/30 02:16:34;;;;;;;16.80;9.55;;;14.50;99.90;;;;;;5093312;28;20068;-62
2022/10/30 02:19:00;;;;;;;18.80;9.48;;;14.50;99.90;;;;;;5093406;28;20036;-62
2022/10/30 02:21:26;;;;;;;18.98;9.40;;;14.60;99.90;;;;;;5093425;28;20044;-62
2022/10/30 02:23:51;;;;;;;16.83;9.35;;;14.50;99.90;;;;;;5092476;28;20043;-62
2022/10/30 02:26:17;;;;;;;16.67;9.55;;;14.50;99.90;;;;;;5092991;28;20146;-62
2022/10/30 02:28:43;;;;;;;14.75;9.15;;;14.50;99.90;;;;;;5093174;28;20032;-62
2022/10/30 02:31:08;;;;;;;16.30;9.07;;;14.50;99.90;;;;;;5092898;28;20398;-63
2022/10/30 02:33:34;;;;;;;20.77;10.05;;;14.50;99.90;;;;;;5092484;28;20062;-62
2022/10/30 02:35:59;;;;;;;16.20;10.18;;;14.50;99.90;;;;;;5092827;28;20039;-63
2022/10/30 02:38:25;;;;;;;19.02;9.55;;;14.40;99.90;;;;;;5092535;28;20036;-63
2022/10/30 02:40:50;;;;;;;18.58;10.23;;;14.50;99.90;;;;;;5092762;28;20043;-63
2022/10/30 02:43:16;;;;;;;16.92;9.43;;;14.40;99.90;;;;;;5092457;28;20051;-62
2022/10/30 02:45:41;;;;;;;19.13;9.93;;;14.40;99.90;;;;;;5092692;28;20462;-63
2022/10/30 02:48:07;;;;;;;17.02;10.38;;;14.40;99.90;;;;;;5092230;28;20606;-62
2022/10/30 02:50:32;;;;;;;15.30;9.43;;;14.40;99.90;;;;;;5092349;28;20444;-62
2022/10/30 02:52:58;;;;;;;16.33;10.50;;;14.40;99.90;;;;;;5092446;28;20044;-62
2022/10/30 02:55:24;;;;;;;17.85;9.68;;;14.30;99.90;;;;;;5092760;28;20098;-62
2022/10/30 02:57:49;;;;;;;14.90;10.05;;;14.30;99.90;;;;;;5092318;28;20365;-62
2022/10/30 03:00:15;;;;;;;16.08;9.05;;;14.20;99.90;;;;;;5091854;28;20052;-62
2022/10/30 03:02:41;;;;;;;16.58;10.43;;;14.20;99.90;;;;;;5092235;28;20044;-63
2022/10/30 03:05:07;;;;;;;15.70;10.32;;;14.20;99.90;;;;;;5092153;28;20032;-62
2022/10/30 03:07:33;;;;;;;19.45;9.75;;;14.20;99.90;;;;;;5092182;28;20488;-63
2022/10/30 03:09:58;;;;;;;20.10;10.45;;;14.20;99.90;;;;;;5092072;28;20059;-62
2022/10/30 03:12:24;;;;;;;17.05;9.70;;;14.10;99.90;;;;;;5092002;28;20499;-62
2022/10/30 03:14:49;;;;;;;18.85;9.98;;;14.10;99.90;;;;;;5092041;28;20097;-63
2022/10/30 03:17:15;;;;;;;18.90;10.68;;;14.10;99.90;;;;;;5092154;28;20040;-62
2022/10/30 03:19:40;;;;;;;18.92;9.93;;;14.10;99.90;;;;;;5091826;28;20076;-62
2022/10/30 03:22:06;;;;;;;16.00;9.38;;;14.10;99.90;;;;;;5091577;28;20040;-62
2022/10/30 03:24:31;;;;;;;16.20;9.50;;;14.10;99.90;;;;;;5091700;28;20039;-62
2022/10/30 03:26:57;;;;;;;15.85;10.43;;;14.10;99.90;;;;;;5091788;28;20036;-62
2022/10/30 03:29:23;;;;;;;20.20;10.18;;;14.10;99.90;;;;;;5091921;28;20107;-62
2022/10/30 03:31:48;;;;;;;19.70;10.52;;;14.10;99.90;;;;;;5091454;28;20059;-62
2022/10/30 03:34:14;;;;;;;18.13;10.45;;;14.10;99.90;;;;;;5091696;28;20036;-62
2022/10/30 03:36:40;;;;;;;18.33;10.60;;;14.00;99.90;;;;;;5091614;28;20040;-62
2022/10/30 03:39:05;;;;;;;15.35;9.50;;;14.00;99.90;;;;;;5091301;28;20044;-62
2022/10/30 03:41:31;;;;;;;15.95;9.80;;;14.00;99.90;;;;;;5091383;28;20059;-63
2022/10/30 03:43:56;;;;;;;19.77;10.43;;;13.90;99.90;;;;;;5091255;28;20191;-62
2022/10/30 03:46:22;;;;;;;18.67;10.43;;;13.90;99.90;;;;;;5091414;28;20040;-62
2022/10/30 03:48:49;;;;;;;21.02;10.45;;;13.90;99.90;;;;;;5091398;28;20082;-63
2022/10/30 03:51:15;;;;;;;17.65;10.77;;;13.90;99.90;;;;;;5090346;28;20109;-62
2022/10/30 03:53:40;;;;;;;17.13;11.07;;;13.80;99.90;;;;;;5091282;28;20112;-63
2022/10/30 03:56:06;;;;;;;16.65;10.18;;;13.80;99.90;;;;;;5091101;28;20072;-62
2022/10/30 03:58:32;;;;;;;22.00;10.25;;;13.70;99.90;;;;;;5090993;28;20056;-62
2022/10/30 04:01:06;;;;;;;18.33;9.80;;;13.80;99.90;;;;;;5091488;28;20342;-62
2022/10/30 04:03:31;;;;;;;18.95;10.45;;;13.80;99.90;;;;;;5090988;28;20071;-62
2022/10/30 04:05:57;;;;;;;16.60;10.38;;;13.80;99.90;;;;;;5091308;28;20128;-63
2022/10/30 04:08:23;;;;;;;19.27;10.55;;;13.70;99.90;;;;;;5090430;28;20027;-62
2022/10/30 04:10:48;;;;;;;18.00;10.27;;;13.70;99.90;;;;;;5091059;28;20062;-63
2022/10/30 04:13:16;;;;;;;23.63;11.25;;;13.70;99.90;;;;;;5090836;28;20040;-63
2022/10/30 04:15:42;;;;;;;19.77;10.25;;;13.60;99.90;;;;;;5090854;28;20481;-62
2022/10/30 04:18:10;;;;;;;17.05;10.05;;;13.60;99.90;;;;;;5089690;28;20052;-61
2022/10/30 04:20:36;;;;;;;16.88;10.32;;;13.60;99.90;;;;;;5090781;28;20185;-62
2022/10/30 04:23:04;;;;;;;17.45;10.10;;;13.60;99.90;;;;;;5090627;28;20028;-62
2022/10/30 04:25:32;;;;;;;16.90;10.77;;;13.60;99.90;;;;;;5090840;28;20087;-62
2022/10/30 04:27:57;;;;;;;16.65;10.25;;;13.50;99.90;;;;;;5091065;28;20054;-62
2022/10/30 04:30:26;;;;;;;15.80;10.48;;;13.50;99.90;;;;;;5090841;28;20131;-62
2022/10/30 04:32:54;;;;;;;21.98;11.20;;;13.50;99.90;;;;;;5089385;28;20438;-62
2022/10/30 04:35:22;;;;;;;17.48;10.85;;;13.50;99.90;;;;;;5091182;28;20105;-62
2022/10/30 04:37:59;;;;;;;19.83;10.63;;;13.50;99.90;;;;;;5090627;28;20085;-62
2022/10/30 04:40:27;;;;;;;17.00;11.43;;;13.50;99.90;;;;;;5090395;28;20115;-62
2022/10/30 04:42:53;;;;;;;20.90;10.70;;;13.50;99.90;;;;;;5090343;28;20176;-63
2022/10/30 04:45:19;;;;;;;17.33;10.00;;;13.50;99.90;;;;;;5090726;28;20040;-62
2022/10/30 04:47:45;;;;;;;21.33;11.60;;;13.50;99.90;;;;;;5090636;28;20112;-62
2022/10/30 04:50:12;;;;;;;19.05;10.95;;;13.50;99.90;;;;;;5090786;28;20462;-63
2022/10/30 04:52:38;;;;;;;21.10;11.45;;;13.40;99.90;;;;;;5090590;28;20048;-62
2022/10/30 04:55:05;;;;;;;19.45;11.15;;;13.40;99.90;;;;;;5090747;28;20035;-62
2022/10/30 04:57:30;;;;;;;20.83;11.40;;;13.40;99.90;;;;;;5090442;28;20100;-62
2022/10/30 04:59:57;;;;;;;15.43;11.00;;;13.40;99.90;;;;;;5089863;28;20044;-62
2022/10/30 05:02:23;;;;;;;15.55;10.48;;;13.40;99.90;;;;;;5090248;28;20488;-62
2022/10/30 05:04:48;;;;;;;20.60;10.90;;;13.40;99.90;;;;;;5090296;28;20075;-62
2022/10/30 05:07:15;;;;;;;19.90;11.45;;;13.30;99.90;;;;;;5090597;28;20035;-63
2022/10/30 05:09:41;;;;;;;20.73;11.30;;;13.30;99.90;;;;;;5090513;28;20105;-62
2022/10/30 05:12:07;;;;;;;18.40;10.40;;;13.30;99.90;;;;;;5090236;28;20040;-63
2022/10/30 05:14:32;;;;;;;18.42;11.50;;;13.30;99.90;;;;;;5090131;28;20127;-62
2022/10/30 05:16:58;;;;;;;18.35;10.55;;;13.30;99.90;;;;;;5122948;28;20047;-62
2022/10/30 05:19:24;;;;;;;21.05;10.95;;;13.20;99.90;;;;;;5090138;28;20051;-62
2022/10/30 05:21:50;;;;;;;19.63;10.93;;;13.20;99.90;;;;;;5092913;28;20058;-63
2022/10/30 05:24:15;;;;;;;17.60;11.02;;;13.20;99.90;;;;;;5093864;28;20093;-62
2022/10/30 05:26:41;;;;;;;19.20;11.32;;;13.20;99.90;;;;;;5094357;28;20090;-63
2022/10/30 05:29:07;;;;;;;18.38;10.98;;;13.20;99.90;;;;;;5094564;28;20349;-62
2022/10/30 05:31:32;;;;;;;14.52;9.73;;;13.20;99.90;;;;;;5092724;28;20078;-62
2022/10/30 05:33:58;;;;;;;19.00;10.65;;;13.20;99.90;;;;;;5093748;28;20032;-62
2022/10/30 05:36:23;;;;;;;16.23;10.93;;;13.20;99.90;;;;;;5094175;28;20511;-62
2022/10/30 05:38:49;;;;;;;19.38;10.63;;;13.20;99.90;;;;;;5093693;28;20131;-63
2022/10/30 05:41:15;;;;;;;18.95;10.82;;;13.20;99.90;;;;;;5093730;28;20032;-62
2022/10/30 05:43:40;;;;;;;18.17;10.65;;;13.20;99.90;;;;;;5093746;28;20032;-62
2022/10/30 05:46:06;;;;;;;19.98;11.38;;;13.20;99.90;;;;;;5093922;28;20036;-62
2022/10/30 05:48:31;;;;;;;20.70;11.63;;;13.20;99.90;;;;;;5093947;28;20051;-62
2022/10/30 05:50:57;;;;;;;18.58;11.68;;;13.20;99.90;;;;;;5093306;28;20056;-62
2022/10/30 05:53:23;;;;;;;20.30;11.00;;;13.10;99.90;;;;;;5087561;28;20244;-62
2022/10/30 05:55:49;;;;;;;21.42;10.88;;;13.10;99.90;;;;;;5093845;28;20040;-62
2022/10/30 05:58:15;;;;;;;20.75;11.52;;;13.10;99.90;;;;;;5093435;28;20039;-62
2022/10/30 06:00:43;;;;;;;19.17;11.63;;;13.10;99.90;;;;;;5093736;28;20048;-62
2022/10/30 06:03:12;;;;;;;19.58;11.55;;;13.10;99.90;;;;;;5092263;28;20050;-60
2022/10/30 06:05:38;;;;;;;21.50;11.13;;;13.10;99.90;;;;;;5093692;28;20137;-61
2022/10/30 06:08:05;;;;;;;18.40;11.88;;;13.10;99.90;;;;;;5091963;28;20106;-61
2022/10/30 06:10:31;;;;;;;21.25;12.25;;;13.10;99.90;;;;;;5093630;28;20114;-62
2022/10/30 06:12:59;;;;;;;22.38;11.63;;;13.10;99.90;;;;;;5092931;28;20062;-62
2022/10/30 06:15:25;;;;;;;20.40;11.38;;;13.10;99.90;;;;;;5093519;28;20040;-62
2022/10/30 06:17:51;;;;;;;21.38;12.50;;;13.10;99.90;;;;;;5093217;28;20453;-61
2022/10/30 06:20:18;;;;;;;18.33;12.00;;;13.10;99.90;;;;;;5093179;28;20047;-62
2022/10/30 06:23:00;;;;;;;19.23;11.23;;;13.10;99.90;;;;;;5092902;28;20054;-61
2022/10/30 06:25:26;;;;;;;20.55;12.77;;;13.00;99.90;;;;;;5092986;28;20035;-61
2022/10/30 06:27:52;;;;;;;17.60;11.13;;;13.00;99.90;;;;;;5092799;28;20068;-61
2022/10/30 06:30:18;;;;;;;20.25;11.73;;;13.00;99.90;;;;;;5092695;28;20075;-61
2022/10/30 06:32:44;;;;;;;17.85;11.23;;;12.90;99.90;;;;;;5092177;28;20047;-62
2022/10/30 06:35:10;;;;;;;21.20;11.45;;;13.00;99.90;;;;;;5092764;28;20147;-62
2022/10/30 06:37:38;;;;;;;19.92;12.52;;;13.00;99.90;;;;;;5092894;28;20086;-62
2022/10/30 06:40:06;;;;;;;19.95;11.77;;;13.00;99.90;;;;;;5093094;28;20135;-61
2022/10/30 06:42:32;;;;;;;20.80;11.75;;;13.00;99.90;;;;;;5092218;28;20476;-61
2022/10/30 06:44:57;;;;;;;20.77;12.43;;;13.00;99.90;;;;;;5092697;28;20032;-61
2022/10/30 06:47:23;;;;;;;18.45;12.57;;;13.00;99.90;;;;;;5092748;28;20036;-62
2022/10/30 06:49:48;;;;;;;20.52;12.02;;;13.00;99.90;;;;;;5092389;28;20040;-62
2022/10/30 06:52:14;;;;;;;19.38;12.40;;;13.00;99.90;;;;;;5092677;28;20036;-62
2022/10/30 06:54:39;;;;;;;19.70;12.70;;;13.00;99.90;;;;;;5092852;28;20574;-62
2022/10/30 06:57:05;;;;;;;19.30;11.88;;;13.00;99.90;;;;;;5093221;28;20399;-61
2022/10/30 06:59:30;;;;;;;20.52;12.73;;;13.00;99.90;;;;;;5092670;28;20456;-62
2022/10/30 07:01:56;;;;;;;22.10;13.20;;;13.00;99.90;;;;;;5092837;28;20620;-63
2022/10/30 07:04:22;;;;;;;21.38;13.07;;;13.10;99.90;;;;;;5092766;28;20043;-61
2022/10/30 07:06:47;;;;;;;19.52;12.57;;;13.10;99.90;;;;;;5092373;28;20047;-61
2022/10/30 07:09:13;;;;;;;18.60;12.85;;;13.10;99.90;;;;;;5092437;28;20044;-62
2022/10/30 07:11:44;;;;;;;21.42;11.95;;;13.10;99.90;;;;;;5092382;28;20476;-61
2022/10/30 07:14:10;;;;;;;18.80;12.45;;;13.10;99.90;;;;;;5092353;28;20040;-61
2022/10/30 07:16:36;;;;;;;19.38;11.73;;;13.20;99.90;;;;;;5092285;28;20048;-61
2022/10/30 07:19:01;;;;;;;18.60;12.10;;;13.20;99.90;;;;;;5092294;28;20036;-61
2022/10/30 07:21:27;;;;;;;18.15;12.38;;;13.30;99.90;;;;;;5091972;28;20188;-61
2022/10/30 07:23:52;;;;;;;20.23;12.45;;;13.30;99.90;;;;;;5091708;28;20036;-62
2022/10/30 07:26:18;;;;;;;19.13;12.10;;;13.40;99.90;;;;;;5092049;28;20121;-62
2022/10/30 07:28:43;;;;;;;21.08;12.10;;;13.40;99.90;;;;;;5092096;28;20044;-62
2022/10/30 07:31:09;;;;;;;18.73;12.32;;;13.50;99.90;;;;;;5092416;28;20116;-62
2022/10/30 07:33:34;;;;;;;19.58;11.75;;;13.50;99.90;;;;;;5091764;28;20487;-61
2022/10/30 07:36:00;;;;;;;19.73;12.88;;;13.60;99.90;;;;;;5092007;28;20125;-62
2022/10/30 07:38:26;;;;;;;19.48;11.52;;;13.60;99.90;;;;;;5091575;28;20082;-61
2022/10/30 07:40:52;;;;;;;21.40;12.35;;;13.70;99.90;;;;;;5091960;28;20059;-62
2022/10/30 07:43:18;;;;;;;20.05;12.63;;;13.80;99.90;;;;;;5090885;28;20051;-61
2022/10/30 07:45:45;;;;;;;21.85;13.18;;;13.80;99.90;;;;;;5091934;28;20048;-61
2022/10/30 07:48:10;;;;;;;20.67;12.48;;;13.90;99.90;;;;;;5091950;28;20101;-62
2022/10/30 07:50:36;;;;;;;22.88;12.57;;;14.00;99.90;;;;;;5091852;28;20461;-61
2022/10/30 07:53:01;;;;;;;20.60;12.52;;;14.10;99.90;;;;;;5091369;28;20123;-62
2022/10/30 07:55:27;;;;;;;21.33;12.32;;;14.20;99.90;;;;;;5091433;28;20325;-62
2022/10/30 07:57:52;;;;;;;18.77;12.20;;;14.20;99.90;;;;;;5091301;28;20036;-61
2022/10/30 08:00:18;;;;;;;22.20;12.55;;;14.30;99.90;;;;;;5090920;28;20044;-61
2022/10/30 08:02:48;;;;;;;19.85;13.07;;;14.40;99.90;;;;;;5091076;28;20464;-61
2022/10/30 08:05:14;;;;;;;21.17;13.18;;;14.40;99.90;;;;;;5090339;28;20623;-61
2022/10/30 08:07:39;;;;;;;17.85;12.65;;;14.50;99.90;;;;;;5090731;28;20047;-62
2022/10/30 08:10:06;;;;;;;18.48;12.20;;;14.60;99.90;;;;;;5090453;28;20379;-62
2022/10/30 08:12:33;;;;;;;21.05;12.63;;;14.70;99.90;;;;;;5089812;28;20051;-61
2022/10/30 08:14:58;;;;;;;22.80;13.35;;;14.70;99.90;;;;;;5090192;28;20365;-62
2022/10/30 08:17:24;;;;;;;26.90;18.58;;;14.80;99.90;;;;;;5089913;28;20039;-62
2022/10/30 08:19:49;;;;;;;17.88;12.52;;;14.90;99.90;;;;;;5090198;28;20051;-62
2022/10/30 08:22:15;;;;;;;19.73;12.18;;;15.00;99.90;;;;;;5089473;28;20032;-62
2022/10/30 08:24:41;;;;;;;20.13;12.55;;;15.00;99.90;;;;;;5090393;28;20460;-62
2022/10/30 08:27:06;;;;;;;18.92;12.02;;;15.10;99.90;;;;;;5090506;28;20040;-62
2022/10/30 08:29:33;;;;;;;19.60;12.35;;;15.20;99.90;;;;;;5089695;28;20044;-62
2022/10/30 08:31:59;;;;;;;16.63;11.52;;;15.40;99.90;;;;;;5086915;28;20145;-61
2022/10/30 08:34:26;;;;;;;19.23;11.50;;;15.40;99.90;;;;;;5090330;28;20059;-61
2022/10/30 08:36:52;;;;;;;19.23;11.05;;;15.50;99.90;;;;;;5089429;28;20106;-61
2022/10/30 08:39:19;;;;;;;18.67;11.77;;;15.60;99.90;;;;;;5090173;28;20353;-63
2022/10/30 08:41:44;;;;;;;21.52;12.82;;;15.70;99.90;;;;;;5090428;28;20402;-62
2022/10/30 08:44:11;;;;;;;21.70;11.63;;;15.80;99.90;;;;;;5089009;28;20119;-63
2022/10/30 08:46:36;;;;;;;20.77;12.05;;;15.80;99.90;;;;;;5090294;28;20032;-62
2022/10/30 08:49:02;;;;;;;19.20;11.85;;;15.90;99.90;;;;;;5090382;28;20097;-62
2022/10/30 08:51:31;;;;;;;18.30;12.32;;;16.00;99.90;;;;;;5089048;28;20487;-62
2022/10/30 08:53:57;;;;;;;17.38;11.75;;;16.10;99.90;;;;;;5091607;28;20114;-62
2022/10/30 08:56:22;;;;;;;19.60;11.52;;;16.20;99.90;;;;;;5090129;28;20119;-60
2022/10/30 08:58:50;;;;;;;19.83;12.25;;;16.20;99.90;;;;;;5090305;28;20105;-60
2022/10/30 09:01:15;;;;;;;18.88;12.32;;;16.40;99.90;;;;;;5090795;28;20379;-60
2022/10/30 09:03:43;;;;;;;19.75;12.07;;;16.50;99.90;;;;;;5090383;28;20438;-61
2022/10/30 09:06:09;;;;;;;24.55;14.18;;;16.60;99.90;;;;;;5090099;28;20652;-61
2022/10/30 09:08:34;;;;;;;23.80;13.02;;;16.60;99.90;;;;;;5090401;28;20126;-61
2022/10/30 09:11:00;;;;;;;23.52;12.70;;;16.70;99.90;;;;;;5090666;28;20072;-61
2022/10/30 09:13:27;;;;;;;19.67;12.85;;;16.80;99.90;;;;;;5089674;28;20036;-61
2022/10/30 09:15:53;;;;;;;22.90;13.02;;;16.90;99.90;;;;;;5089815;28;20039;-61
2022/10/30 09:18:18;;;;;;;23.95;13.80;;;17.00;99.90;;;;;;5090101;28;20032;-61
2022/10/30 09:20:47;;;;;;;33.88;27.83;;;17.10;99.90;;;;;;5090221;28;20093;-62
2022/10/30 09:23:12;;;;;;;20.48;13.85;;;17.20;99.90;;;;;;5088020;28;20048;-61
2022/10/30 09:25:38;;;;;;;20.45;14.30;;;17.40;99.90;;;;;;5089726;28;20028;-62
2022/10/30 09:28:03;;;;;;;20.88;14.27;;;17.60;99.90;;;;;;5089583;28;20047;-62
2022/10/30 09:30:29;;;;;;;21.15;13.07;;;17.60;99.90;;;;;;5089642;28;20460;-61
2022/10/30 09:33:00;;;;;;;20.52;14.90;;;17.70;99.90;;;;;;5089510;28;20196;-61
2022/10/30 09:35:26;;;;;;;19.63;12.60;;;17.60;99.90;;;;;;5089553;28;20085;-60
2022/10/30 09:37:52;;;;;;;17.92;11.90;;;17.70;99.90;;;;;;5089260;28;20039;-61
2022/10/30 09:40:33;;;;;;;21.00;12.10;;;17.80;99.90;;;;;;5089799;28;20039;-61
2022/10/30 09:43:25;;;;;;;21.25;12.02;;;17.80;99.90;;;;;;5088180;28;20032;-61
2022/10/30 09:46:18;;;;;;;21.70;12.18;;;17.70;99.90;;;;;;5089036;28;20198;-61
2022/10/30 09:49:10;;;;;;;16.55;11.55;;;17.70;99.90;;;;;;5089088;28;20074;-61
2022/10/30 09:51:58;;;;;;;16.05;11.63;;;17.70;99.90;;;;;;5089377;28;20465;-61
2022/10/30 09:54:34;;;;;;;20.48;12.43;;;17.80;99.90;;;;;;5089771;28;20058;-61
2022/10/30 09:57:22;;;;;;;26.10;13.45;;;17.80;99.90;;;;;;5089654;28;20106;-61
2022/10/30 10:00:10;;;;;;;20.13;14.02;;;17.90;99.90;;;;;;5089129;28;20523;-62
2022/10/30 10:02:46;;;;;;;18.52;12.00;;;18.10;99.90;;;;;;5089677;28;20486;-62
2022/10/30 10:05:12;;;;;;;21.25;12.57;;;18.10;99.90;;;;;;5089235;28;20315;-61
2022/10/30 10:07:43;;;;;;;21.90;12.82;;;18.20;99.90;;;;;;5092077;28;20040;-62
2022/10/30 10:10:34;;;;;;;20.83;13.00;;;18.20;99.90;;;;;;5092904;28;20407;-61
2022/10/30 10:13:01;;;;;;;21.58;13.02;;;18.30;99.90;;;;;;5084066;28;20050;-61
2022/10/30 10:15:46;;;;;;;21.40;11.82;;;18.30;99.90;;;;;;5092695;28;20055;-62
2022/10/30 10:18:26;;;;;;;17.52;11.13;;;18.40;99.90;;;;;;5092401;28;20044;-61
2022/10/30 10:20:58;;;;;;;20.45;12.40;;;18.50;99.90;;;;;;5090754;28;20122;-61
2022/10/30 10:23:29;;;;;;;19.67;12.43;;;18.50;99.90;;;;;;5091349;28;20044;-62
2022/10/30 10:25:58;;;;;;;22.50;12.52;;;18.60;99.90;;;;;;5092480;28;20089;-61
2022/10/30 10:28:58;;;;;;;21.08;12.10;;;18.60;99.90;;;;;;5092450;28;20072;-61
2022/10/30 10:31:45;;;;;;;19.98;11.77;;;18.70;99.90;;;;;;5084077;28;20086;-62
2022/10/30 10:34:30;;;;;;;22.92;12.23;;;18.70;99.90;;;;;;5092774;28;20035;-61
2022/10/30 10:37:00;;;;;;;16.95;10.65;;;18.80;99.90;;;;;;5091895;28;20132;-63
2022/10/30 10:39:45;;;;;;;18.52;11.75;;;18.90;99.90;;;;;;5091943;28;20114;-62
2022/10/30 10:42:34;;;;;;;21.33;11.50;;;18.90;99.90;;;;;;5092381;28;20055;-61
2022/10/30 10:45:24;;;;;;;19.52;12.75;;;19.00;99.90;;;;;;5091150;28;20031;-61
2022/10/30 10:48:00;;;;;;;17.35;11.45;;;19.00;99.90;;;;;;5092640;28;20067;-62
2022/10/30 10:50:33;;;;;;;22.60;11.77;;;19.10;99.90;;;;;;5091530;28;20036;-62
2022/10/30 10:53:05;;;;;;;23.75;12.25;;;19.10;99.90;;;;;;5088371;28;20047;-61
2022/10/30 10:55:36;;;;;;;19.13;10.57;;;19.00;99.90;;;;;;5092919;28;20171;-61
2022/10/30 10:58:15;;;;;;;18.60;10.98;;;19.10;99.90;;;;;;5091180;28;20051;-61
2022/10/30 11:00:42;;;;;;;16.80;9.95;;;19.20;99.90;;;;;;5092261;28;20471;-62
2022/10/30 11:03:16;;;;;;;17.00;10.02;;;19.30;99.90;;;;;;5092757;28;20036;-62
2022/10/30 11:05:45;;;;;;;;;;;19.40;99.90;;;;;;5093327;28;20040;-62
2022/10/30 11:08:34;;;;;;;18.63;9.93;;;19.40;99.90;;;;;;5092081;28;19931;-62
2022/10/30 11:11:02;;;;;;;18.92;10.75;;;19.40;99.90;;;;;;5091579;28;20055;-62
2022/10/30 11:13:39;;;;;;;20.08;10.23;;;19.40;99.90;;;;;;5092244;28;20426;-61
2022/10/30 11:16:19;;;;;;;19.63;10.85;;;19.40;99.90;;;;;;5092480;28;20050;-61
2022/10/30 11:18:46;;;;;;;15.98;10.75;;;19.40;99.90;;;;;;5092272;28;20119;-63
2022/10/30 11:21:20;;;;;;;21.85;11.55;;;19.50;99.90;;;;;;5092262;28;20036;-61
2022/10/30 11:23:47;;;;;;;;;;;19.60;99.90;;;;;;5092691;28;20060;-62
2022/10/30 11:26:25;;;;;;;19.02;10.75;;;19.70;99.90;;;;;;5091536;28;20394;-62
2022/10/30 11:29:14;;;;;;;20.50;10.15;;;19.70;99.90;;;;;;5090186;28;20033;-62
2022/10/30 11:31:44;;;;;;;21.15;10.68;;;19.80;99.90;;;;;;5092167;28;20517;-62
2022/10/30 11:34:16;;;;;;;21.38;10.45;;;19.90;99.90;;;;;;5091620;28;20445;-61
2022/10/30 11:36:42;;;;;;;16.70;9.55;;;19.90;99.90;;;;;;5091987;28;20035;-62
2022/10/30 11:39:19;;;;;;;22.40;10.18;;;20.00;99.90;;;;;;5091702;28;20044;-61
2022/10/30 11:42:03;;;;;;;16.90;9.27;;;20.00;99.90;;;;;;5092306;28;20048;-62
2022/10/30 11:44:40;;;;;;;16.55;9.40;;;20.00;99.90;;;;;;5091594;28;20115;-61
2022/10/30 11:47:08;;;;;;;14.88;9.18;;;20.00;99.90;;;;;;5091479;28;20469;-62
2022/10/30 11:49:57;;;;;;;19.45;9.95;;;20.00;99.90;;;;;;5091656;28;20051;-61
2022/10/30 11:52:25;;;;;;;16.58;8.43;;;19.90;99.90;;;;;;5082772;28;20040;-62
2022/10/30 11:55:16;;;;;;;17.42;9.35;;;20.00;99.90;;;;;;5091672;28;20054;-62
2022/10/30 11:57:45;;;;;;;18.27;8.70;;;20.00;99.90;;;;;;5085400;28;20451;-61
2022/10/30 12:00:19;;;;;;;14.27;8.50;;;20.00;99.90;;;;;;5089995;28;20077;-62
2022/10/30 12:02:47;;;;;;;18.20;8.10;;;20.10;99.90;;;;;;5091257;28;20449;-62
2022/10/30 12:05:40;;;;;;;18.30;8.23;;;20.10;99.90;;;;;;5091525;28;20104;-61
2022/10/30 12:08:06;;;;;;;14.43;6.82;;;20.00;99.90;;;;;;5083645;28;20032;-62
2022/10/30 12:10:44;;;;;;;17.60;7.97;;;20.10;99.90;;;;;;5086580;28;20467;-62
2022/10/30 12:13:15;;;;;;;15.38;7.30;;;20.00;99.90;;;;;;5091067;28;20444;-62
2022/10/30 12:15:41;;;;;;;13.20;8.02;;;20.00;99.90;;;;;;5090952;28;20372;-63
2022/10/30 12:18:17;;;;;;;14.02;7.53;;;20.00;99.90;;;;;;5090654;28;20357;-62
2022/10/30 12:20:47;;;;;;;15.50;8.02;;;20.10;99.90;;;;;;5089022;28;20161;-62
2022/10/30 12:23:19;;;;;;;21.65;9.20;;;20.10;99.90;;;;;;5090670;28;20403;-62
2022/10/30 12:25:51;;;;;;;16.08;8.82;;;20.20;99.90;;;;;;5077619;28;20060;-61
2022/10/30 12:28:20;;;;;;;14.82;7.90;;;20.20;99.90;;;;;;5091095;28;20059;-62
2022/10/30 12:31:13;;;;;;;16.30;7.40;;;20.20;99.90;;;;;;5090064;28;20483;-62
2022/10/30 12:33:51;;;;;;;16.33;7.50;;;20.30;99.90;;;;;;5090665;28;20110;-61
2022/10/30 12:36:21;;;;;;;15.63;7.72;;;20.30;99.90;;;;;;5090916;28;20055;-62
2022/10/30 12:38:55;;;;;;;18.48;8.60;;;20.30;99.90;;;;;;5089997;28;20333;-63
2022/10/30 12:41:38;;;;;;;16.58;7.25;;;20.30;99.90;;;;;;5088753;28;20040;-61
2022/10/30 12:44:10;;;;;;;13.70;7.20;;;20.30;99.90;;;;;;5090146;28;20327;-62